createdAt,value
2022-12-02T00:00:33.816Z,91.96
2022-12-02T00:02:35.054Z,91.92
2022-12-02T00:04:36.390Z,91.69
2022-12-02T00:06:37.640Z,91.62
2022-12-02T00:08:39.484Z,91.76
2022-12-02T00:10:40.680Z,91.93
2022-12-02T00:12:42.371Z,91.67
2022-12-02T00:14:44.012Z,91.85
2022-12-02T00:16:45.276Z,92.28
2022-12-02T00:18:46.302Z,92.34
2022-12-02T00:22:48.725Z,92.51
2022-12-02T00:24:50.670Z,92.52
2022-12-02T00:26:51.751Z,92.61
2022-12-02T00:28:53.109Z,92.43
2022-12-02T00:30:54.657Z,92.49
2022-12-02T00:32:55.727Z,92.44
2022-12-02T00:34:57.475Z,92.72
2022-12-02T00:36:59.351Z,92.47
2022-12-02T00:39:00.573Z,92.68
2022-12-02T00:41:01.687Z,92.31
2022-12-02T00:43:03.003Z,92.4
2022-12-02T00:45:04.649Z,92.49
2022-12-02T00:47:06.541Z,92.36
2022-12-02T00:49:08.542Z,92.4
2022-12-02T00:51:10.125Z,92.24
2022-12-02T00:55:12.674Z,92.17
2022-12-02T00:57:14.591Z,92.37
2022-12-02T00:59:15.993Z,92.43
2022-12-02T01:01:17.075Z,92.45
2022-12-02T01:05:20.406Z,92.62
2022-12-02T01:07:22.205Z,92.7
2022-12-02T01:09:23.955Z,93
2022-12-02T01:11:25.935Z,92.8
2022-12-02T01:13:27.115Z,92.68
2022-12-02T01:15:28.422Z,92.6
2022-12-02T01:17:29.705Z,92.58
2022-12-02T01:21:33.260Z,92.65
2022-12-02T01:23:34.462Z,92.77
2022-12-02T01:25:36.354Z,92.64
2022-12-02T01:27:37.671Z,92.84
2022-12-02T01:29:39.051Z,92.97
2022-12-02T01:31:40.831Z,93.25
2022-12-02T01:33:41.966Z,93.12
2022-12-02T01:37:44.675Z,93.26
2022-12-02T01:39:45.960Z,93.6
2022-12-02T01:41:47.475Z,93.64
2022-12-02T01:43:49.384Z,93.63
2022-12-02T01:47:52.050Z,93.61
2022-12-02T01:49:53.074Z,93.55
2022-12-02T01:53:55.826Z,93.87
2022-12-02T01:55:57.062Z,93.78
2022-12-02T01:57:58.166Z,93.7
2022-12-02T01:59:59.680Z,93.9
2022-12-02T02:04:03.206Z,93.66
2022-12-02T02:06:04.781Z,93.69
2022-12-02T02:08:06.058Z,93.83
2022-12-02T02:10:07.072Z,93.79
2022-12-02T02:12:08.840Z,93.6
2022-12-02T02:14:10.099Z,93.72
2022-12-02T02:16:11.936Z,93.73
2022-12-02T02:18:13.315Z,94.13
2022-12-02T02:20:14.931Z,94.04
2022-12-02T02:22:16.884Z,94.18
2022-12-02T02:24:18.873Z,94.36
2022-12-02T02:26:20.407Z,94.3
2022-12-02T02:28:22.210Z,94.3
2022-12-02T02:30:23.792Z,94.21
2022-12-02T02:32:25.400Z,94.22
2022-12-02T02:36:28.513Z,93.98
2022-12-02T02:38:29.774Z,93.96
2022-12-02T02:40:31.606Z,93.93
2022-12-02T02:42:32.937Z,93.91
2022-12-02T02:46:35.824Z,93.83
2022-12-02T02:48:36.743Z,94.05
2022-12-02T02:50:38.766Z,94.07
2022-12-02T02:52:39.976Z,94
2022-12-02T02:54:41.843Z,94.04
2022-12-02T02:56:43.096Z,94.03
2022-12-02T02:58:44.522Z,94.04
2022-12-02T03:00:45.724Z,94.22
2022-12-02T03:02:47.257Z,94.15
2022-12-02T03:04:48.522Z,94.18
2022-12-02T03:06:50.043Z,94.19
2022-12-02T03:08:51.748Z,94.17
2022-12-02T03:10:52.937Z,94.14
2022-12-02T03:12:54.522Z,94.29
2022-12-02T03:14:55.917Z,94.24
2022-12-02T03:16:57.267Z,94.15
2022-12-02T03:18:58.418Z,94.04
2022-12-02T03:20:59.898Z,94
2022-12-02T03:23:01.415Z,94.09
2022-12-02T03:25:03.032Z,94.16
2022-12-02T03:29:06.021Z,94.34
2022-12-02T03:31:07.471Z,94.3
2022-12-02T03:33:09.168Z,94.08
2022-12-02T03:35:10.505Z,94.1
2022-12-02T03:37:12.034Z,94.19
2022-12-02T03:39:13.203Z,94.19
2022-12-02T03:41:14.966Z,94.32
2022-12-02T03:43:16.336Z,94.44
2022-12-02T03:45:18.231Z,94.47
2022-12-02T03:47:19.392Z,94.74
2022-12-02T03:49:20.706Z,94.79
2022-12-02T03:51:21.703Z,95.11
2022-12-02T03:53:23.334Z,95.22
2022-12-02T03:55:24.998Z,95.15
2022-12-02T03:57:26.260Z,95.23
2022-12-02T04:01:29.773Z,95.35
2022-12-02T04:03:31.235Z,95.41
2022-12-02T04:05:32.403Z,95.39
2022-12-02T04:07:33.922Z,95.51
2022-12-02T04:11:37.166Z,95.53
2022-12-02T04:13:38.191Z,95.46
2022-12-02T04:15:40.235Z,95.56
2022-12-02T04:17:41.746Z,95.67
2022-12-02T04:19:43.589Z,95.72
2022-12-02T04:21:45.065Z,95.82
2022-12-02T04:23:46.474Z,95.75
2022-12-02T04:25:48.346Z,95.76
2022-12-02T04:27:49.606Z,95.8
2022-12-02T04:29:51.378Z,95.81
2022-12-02T04:31:52.849Z,95.84
2022-12-02T04:33:54.061Z,95.91
2022-12-02T04:35:56.021Z,96.04
2022-12-02T04:37:57.638Z,95.95
2022-12-02T04:39:59.541Z,96.03
2022-12-02T04:44:02.935Z,96.18
2022-12-02T04:46:04.757Z,96.24
2022-12-02T04:48:06.463Z,96.3
2022-12-02T04:50:07.941Z,96.2
2022-12-02T04:54:10.836Z,96.26
2022-12-02T04:56:12.397Z,96.14
2022-12-02T04:58:14.325Z,95.99
2022-12-02T05:00:15.675Z,96.19
2022-12-02T05:02:17.621Z,96.24
2022-12-02T05:04:18.943Z,96.21
2022-12-02T05:06:20.561Z,96.28
2022-12-02T05:08:22.099Z,96.33
2022-12-02T05:09:06.025Z,96.29
2022-12-02T05:11:07.835Z,96.26
2022-12-02T05:13:09.325Z,96.34
2022-12-02T05:15:10.800Z,96.38
2022-12-02T05:17:12.615Z,96.21
2022-12-02T05:19:13.674Z,96.25
2022-12-02T05:21:15.690Z,96.22
2022-12-02T05:23:17.125Z,96.33
2022-12-02T05:25:18.233Z,96.45
2022-12-02T05:27:20.010Z,96.42
2022-12-02T05:31:23.210Z,96.6
2022-12-02T05:33:24.242Z,96.62
2022-12-02T05:35:25.797Z,96.63
2022-12-02T05:37:27.298Z,96.44
2022-12-02T05:39:28.641Z,96.56
2022-12-02T05:41:30.092Z,96.4
2022-12-02T05:43:31.573Z,96.46
2022-12-02T05:45:32.738Z,96.57
2022-12-02T05:47:34.245Z,96.59
2022-12-02T05:49:36.059Z,96.56
2022-12-02T05:51:37.898Z,96.56
2022-12-02T05:53:39.151Z,96.57
2022-12-02T05:55:40.459Z,96.54
2022-12-02T05:57:42.226Z,96.62
2022-12-02T05:59:43.562Z,96.64
2022-12-02T06:01:45.079Z,96.62
2022-12-02T06:03:46.912Z,96.63
2022-12-02T06:05:48.932Z,96.58
2022-12-02T06:07:50.141Z,96.57
2022-12-02T06:09:51.174Z,96.57
2022-12-02T06:11:52.565Z,96.62
2022-12-02T06:13:54.002Z,96.69
2022-12-02T06:15:55.558Z,96.61
2022-12-02T06:19:58.961Z,96.58
2022-12-02T06:22:00.725Z,96.54
2022-12-02T06:24:02.148Z,96.62
2022-12-02T06:26:03.651Z,96.64
2022-12-02T06:30:06.943Z,96.64
2022-12-02T06:32:08.872Z,96.74
2022-12-02T06:34:10.639Z,96.8
2022-12-02T06:36:11.694Z,96.72
2022-12-02T06:38:13.649Z,96.56
2022-12-02T06:40:29.596Z,96.64
2022-12-02T06:42:16.497Z,96.62
2022-12-02T06:44:17.584Z,96.68
2022-12-02T06:46:19.188Z,96.66
2022-12-02T06:48:20.802Z,96.69
2022-12-02T06:50:22.033Z,96.61
2022-12-02T06:52:23.120Z,96.56
2022-12-02T06:54:24.928Z,96.56
2022-12-02T06:56:26.246Z,96.68
2022-12-02T06:58:28.010Z,96.66
2022-12-02T07:02:31.331Z,96.73
2022-12-02T07:04:32.896Z,96.68
2022-12-02T07:06:34.097Z,96.6
2022-12-02T07:08:35.979Z,96.62
2022-12-02T07:12:38.673Z,96.79
2022-12-02T07:14:39.848Z,96.83
2022-12-02T07:16:41.923Z,96.8
2022-12-02T07:18:43.880Z,96.9
2022-12-02T07:20:45.586Z,96.88
2022-12-02T07:22:46.656Z,96.73
2022-12-02T07:24:48.160Z,96.59
2022-12-02T07:26:49.444Z,96.56
2022-12-02T07:28:50.532Z,96.62
2022-12-02T07:30:51.696Z,96.64
2022-12-02T07:32:53.529Z,96.65
2022-12-02T07:34:54.574Z,96.67
2022-12-02T07:36:56.215Z,96.67
2022-12-02T07:39:05.601Z,96.68
2022-12-02T07:40:59.759Z,96.54
2022-12-02T07:43:00.975Z,96.67
2022-12-02T07:45:02.817Z,96.63
2022-12-02T07:47:04.152Z,96.61
2022-12-02T07:49:06.069Z,96.51
2022-12-02T07:51:07.725Z,96.63
2022-12-02T07:55:11.253Z,96.52
2022-12-02T07:57:12.344Z,96.47
2022-12-02T07:59:14.157Z,96.62
2022-12-02T08:01:19.251Z,96.67
2022-12-02T08:03:16.210Z,96.65
2022-12-02T08:05:17.545Z,96.53
2022-12-02T08:07:19.297Z,96.51
2022-12-02T08:09:21.298Z,96.63
2022-12-02T08:11:23.090Z,96.66
2022-12-02T08:13:24.963Z,96.65
2022-12-02T08:15:26.351Z,96.79
2022-12-02T08:17:27.964Z,96.78
2022-12-02T08:19:29.670Z,96.84
2022-12-02T08:21:30.799Z,96.54
2022-12-02T08:23:32.474Z,96.64
2022-12-02T08:25:33.750Z,96.58
2022-12-02T08:27:35.733Z,96.69
2022-12-02T08:29:37.308Z,96.76
2022-12-02T08:31:38.702Z,96.86
2022-12-02T08:33:40.160Z,96.85
2022-12-02T08:37:43.326Z,96.91
2022-12-02T08:39:45.079Z,96.97
2022-12-02T08:43:48.799Z,96.96
2022-12-02T08:45:50.371Z,96.74
2022-12-02T08:47:52.209Z,96.91
2022-12-02T08:49:53.794Z,96.9
2022-12-02T08:51:55.356Z,96.85
2022-12-02T08:53:56.542Z,96.86
2022-12-02T08:55:57.655Z,96.79
2022-12-02T08:57:59.562Z,96.9
2022-12-02T09:00:00.713Z,96.84
2022-12-02T09:02:02.453Z,96.81
2022-12-02T09:04:03.715Z,96.86
2022-12-02T09:06:05.732Z,96.94
2022-12-02T09:08:07.346Z,96.82
2022-12-02T09:10:08.780Z,96.93
2022-12-02T09:12:10.195Z,96.93
2022-12-02T09:14:12.113Z,96.94
2022-12-02T09:16:13.236Z,96.91
2022-12-02T09:20:16.491Z,96.8
2022-12-02T09:22:17.976Z,96.77
2022-12-02T09:24:19.845Z,96.89
2022-12-02T09:26:21.855Z,96.87
2022-12-02T09:28:22.945Z,96.69
2022-12-02T09:30:24.536Z,96.8
2022-12-02T09:32:25.865Z,96.64
2022-12-02T09:34:27.286Z,96.58
2022-12-02T09:36:28.450Z,96.69
2022-12-02T09:38:30.158Z,96.62
2022-12-02T09:40:31.603Z,96.73
2022-12-02T09:42:33.425Z,96.59
2022-12-02T09:44:34.671Z,96.65
2022-12-02T09:46:36.493Z,96.8
2022-12-02T09:48:37.739Z,96.81
2022-12-02T09:52:40.871Z,96.78
2022-12-02T09:54:42.795Z,96.78
2022-12-02T09:56:43.884Z,96.76
2022-12-02T09:58:45.513Z,96.61
2022-12-02T10:02:48.410Z,96.4
2022-12-02T10:04:50.503Z,96.53
2022-12-02T10:06:51.637Z,96.68
2022-12-02T10:08:53.376Z,96.56
2022-12-02T10:10:54.853Z,96.72
2022-12-02T10:12:56.240Z,96.56
2022-12-02T10:14:58.065Z,96.56
2022-12-02T10:17:00.007Z,96.6
2022-12-02T10:19:01.224Z,96.54
2022-12-02T10:21:02.492Z,96.63
2022-12-02T10:23:04.169Z,96.49
2022-12-02T10:25:05.901Z,96.66
2022-12-02T10:27:07.352Z,96.71
2022-12-02T10:29:09.154Z,96.58
2022-12-02T10:31:10.443Z,96.65
2022-12-02T10:33:11.584Z,96.54
2022-12-02T10:35:13.032Z,96.61
2022-12-02T10:37:14.801Z,96.47
2022-12-02T10:39:16.647Z,96.42
2022-12-02T10:41:18.051Z,96.56
2022-12-02T10:43:19.803Z,96.46
2022-12-02T10:45:21.343Z,96.38
2022-12-02T10:47:26.406Z,96.46
2022-12-02T10:51:25.750Z,96.58
2022-12-02T10:53:27.041Z,96.51
2022-12-02T10:55:28.964Z,96.61
2022-12-02T10:57:30.085Z,96.39
2022-12-02T11:01:33.730Z,96.19
2022-12-02T11:03:34.736Z,96.46
2022-12-02T11:05:36.654Z,96.31
2022-12-02T11:07:38.683Z,96.48
2022-12-02T11:09:41.181Z,96.31
2022-12-02T11:11:42.451Z,96.42
2022-12-02T11:13:47.874Z,96.37
2022-12-02T11:15:45.330Z,96.41
2022-12-02T11:17:46.851Z,96.38
2022-12-02T11:19:48.095Z,96.38
2022-12-02T11:21:49.222Z,96.1
2022-12-02T11:23:51.051Z,96.28
2022-12-02T11:25:52.758Z,96.44
2022-12-02T11:27:54.185Z,96.47
2022-12-02T11:29:56.130Z,96.37
2022-12-02T11:34:02.488Z,96.23
2022-12-02T11:36:00.643Z,96.15
2022-12-02T11:38:01.637Z,96.15
2022-12-02T11:40:02.829Z,96.25
2022-12-02T11:44:05.121Z,96.1
2022-12-02T11:46:06.747Z,96.11
2022-12-02T11:48:08.314Z,96.21
2022-12-02T11:50:09.985Z,96.1
2022-12-02T11:52:11.534Z,96.08
2022-12-02T11:54:13.569Z,96.32
2022-12-02T11:54:57.439Z,96.26
2022-12-02T11:56:59.469Z,95.96
2022-12-02T11:59:00.975Z,96.15
2022-12-02T12:01:02.316Z,96.17
2022-12-02T12:03:03.765Z,96.34
2022-12-02T12:05:05.170Z,96.2
2022-12-02T12:07:06.825Z,96.33
2022-12-02T12:09:08.821Z,96.38
2022-12-02T12:11:10.558Z,96.36
2022-12-02T12:13:11.773Z,96.27
2022-12-02T12:15:12.979Z,96.31
2022-12-02T12:17:14.777Z,96.41
2022-12-02T12:21:17.430Z,96.4
2022-12-02T12:23:18.502Z,96.36
2022-12-02T12:25:23.429Z,96.4
2022-12-02T12:27:21.333Z,96.48
2022-12-02T12:29:22.900Z,96.49
2022-12-02T12:31:24.561Z,96.43
2022-12-02T12:33:26.323Z,96.46
2022-12-02T12:35:27.846Z,96.63
2022-12-02T12:37:29.354Z,96.68
2022-12-02T12:39:30.423Z,96.6
2022-12-02T12:41:58.320Z,96.65
2022-12-02T12:43:33.986Z,96.69
2022-12-02T12:45:35.753Z,96.74
2022-12-02T12:47:36.859Z,96.67
2022-12-02T12:49:38.432Z,96.69
2022-12-02T12:51:39.674Z,96.71
2022-12-02T12:53:41.084Z,96.75
2022-12-02T12:55:42.601Z,96.69
2022-12-02T12:57:44.256Z,96.68
2022-12-02T12:59:45.580Z,96.69
2022-12-02T13:01:47.445Z,96.79
2022-12-02T13:03:48.965Z,96.68
2022-12-02T13:05:50.279Z,96.62
2022-12-02T13:07:51.425Z,96.61
2022-12-02T13:09:52.834Z,96.76
2022-12-02T13:11:54.069Z,96.85
2022-12-02T13:13:56.052Z,96.92
2022-12-02T13:15:57.984Z,96.92
2022-12-02T13:17:59.086Z,96.84
2022-12-02T13:20:00.639Z,96.79
2022-12-02T13:22:02.522Z,96.97
2022-12-02T13:24:03.977Z,97.01
2022-12-02T13:26:05.553Z,96.96
2022-12-02T13:28:07.001Z,96.96
2022-12-02T13:30:08.801Z,97.03
2022-12-02T13:32:10.532Z,97.01
2022-12-02T13:34:12.490Z,97
2022-12-02T13:36:13.722Z,97.2
2022-12-02T13:38:14.783Z,97.13
2022-12-02T13:40:16.058Z,97.09
2022-12-02T13:42:17.230Z,97.16
2022-12-02T13:46:20.286Z,97.22
2022-12-02T13:48:21.826Z,97.21
2022-12-02T13:50:22.864Z,97.23
2022-12-02T13:52:24.329Z,97.22
2022-12-02T13:54:26.086Z,97.26
2022-12-02T13:56:27.223Z,97.23
2022-12-02T13:58:28.881Z,97.24
2022-12-02T14:00:30.282Z,97.31
2022-12-02T14:02:31.769Z,97.23
2022-12-02T14:04:33.356Z,97.11
2022-12-02T14:06:34.514Z,97.1
2022-12-02T14:08:36.362Z,97.09
2022-12-02T14:10:37.429Z,97.15
2022-12-02T14:12:39.005Z,97.07
2022-12-02T14:14:40.089Z,97.1
2022-12-02T14:18:43.130Z,97.08
2022-12-02T14:20:44.899Z,97.04
2022-12-02T14:22:46.188Z,97.05
2022-12-02T14:24:48.713Z,97.06
2022-12-02T14:28:50.568Z,97.05
2022-12-02T14:30:52.079Z,97.04
2022-12-02T14:34:55.598Z,97.09
2022-12-02T14:36:56.440Z,97.19
2022-12-02T14:38:57.640Z,97.23
2022-12-02T14:40:59.008Z,97.15
2022-12-02T14:45:02.571Z,97.23
2022-12-02T14:47:04.552Z,97.25
2022-12-02T14:49:37.574Z,97.23
2022-12-02T14:51:08.209Z,97.26
2022-12-02T14:53:09.436Z,97.27
2022-12-02T14:55:11.144Z,97.27
2022-12-02T14:57:13.090Z,97.33
2022-12-02T14:59:15.367Z,97.3
2022-12-02T15:01:16.662Z,97.32
2022-12-02T15:03:18.337Z,97.28
2022-12-02T15:05:19.741Z,97.31
2022-12-02T15:07:21.334Z,97.32
2022-12-02T15:11:24.708Z,97.37
2022-12-02T15:13:26.231Z,97.34
2022-12-02T15:17:28.854Z,97.37
2022-12-02T15:19:30.509Z,97.33
2022-12-02T15:21:32.398Z,97.28
2022-12-02T15:23:34.402Z,97.33
2022-12-02T15:25:35.791Z,97.32
2022-12-02T15:27:36.995Z,97.4
2022-12-02T15:29:38.385Z,97.3
2022-12-02T15:31:39.900Z,97.29
2022-12-02T15:33:40.806Z,97.29
2022-12-02T15:35:42.332Z,97.34
2022-12-02T15:37:43.623Z,97.3
2022-12-02T15:39:45.385Z,97.31
2022-12-02T15:41:47.221Z,97.27
2022-12-02T15:43:53.404Z,97.3
2022-12-02T15:45:50.543Z,97.33
2022-12-02T15:47:51.916Z,97.34
2022-12-02T15:49:53.633Z,97.36
2022-12-02T15:51:55.116Z,97.37
2022-12-02T15:53:56.228Z,97.38
2022-12-02T15:55:58.159Z,97.41
2022-12-02T16:00:01.156Z,97.43
2022-12-02T16:02:02.234Z,97.44
2022-12-02T16:04:03.987Z,97.43
2022-12-02T16:06:05.592Z,97.46
2022-12-02T16:10:08.360Z,97.38
2022-12-02T16:12:09.602Z,97.37
2022-12-02T16:14:10.983Z,97.39
2022-12-02T16:16:12.920Z,97.29
2022-12-02T16:18:14.903Z,97.24
2022-12-02T16:20:16.713Z,97.14
2022-12-02T16:22:18.657Z,97.19
2022-12-02T16:24:20.273Z,97.2
2022-12-02T16:26:22.068Z,97.19
2022-12-02T16:28:23.690Z,97.24
2022-12-02T16:30:24.910Z,97.22
2022-12-02T16:32:26.454Z,97.14
2022-12-02T16:34:27.740Z,97.14
2022-12-02T16:36:28.858Z,97.23
2022-12-02T16:38:30.189Z,97.27
2022-12-02T16:42:33.159Z,97.31
2022-12-02T16:44:34.998Z,97.37
2022-12-02T16:46:36.410Z,97.42
2022-12-02T16:48:37.954Z,97.43
2022-12-02T16:52:40.913Z,97.39
2022-12-02T16:54:42.235Z,97.42
2022-12-02T16:56:43.392Z,97.36
2022-12-02T16:58:45.351Z,97.36
2022-12-02T17:00:47.134Z,97.22
2022-12-02T17:02:48.888Z,97.13
2022-12-02T17:04:50.172Z,97.07
2022-12-02T17:06:51.687Z,97.09
2022-12-02T17:08:55.764Z,97.14
2022-12-02T17:10:54.617Z,97.07
2022-12-02T17:12:55.789Z,96.92
2022-12-02T17:14:57.513Z,97.03
2022-12-02T17:16:59.122Z,97.01
2022-12-02T17:19:00.898Z,96.89
2022-12-02T17:21:02.274Z,96.95
2022-12-02T17:25:05.553Z,96.89
2022-12-02T17:27:06.759Z,96.89
2022-12-02T17:29:08.232Z,96.92
2022-12-02T17:31:09.445Z,96.95
2022-12-02T17:33:11.451Z,96.93
2022-12-02T17:35:12.895Z,96.96
2022-12-02T17:37:14.255Z,97.01
2022-12-02T17:39:15.423Z,97.05
2022-12-02T17:41:17.154Z,97.02
2022-12-02T17:43:18.286Z,97.08
2022-12-02T17:45:20.090Z,97.08
2022-12-02T17:47:22.133Z,97.11
2022-12-02T17:49:23.424Z,97.14
2022-12-02T17:51:25.385Z,97.07
2022-12-02T17:53:26.902Z,97.05
2022-12-02T17:57:30.077Z,97.01
2022-12-02T17:59:32.094Z,96.94
2022-12-02T18:01:33.586Z,96.91
2022-12-02T18:03:34.711Z,96.86
2022-12-02T18:07:38.240Z,96.84
2022-12-02T18:09:39.381Z,96.89
2022-12-02T18:11:41.415Z,96.96
2022-12-02T18:13:42.620Z,96.95
2022-12-02T18:15:44.412Z,96.92
2022-12-02T18:17:46.213Z,96.88
2022-12-02T18:19:47.706Z,96.83
2022-12-02T18:21:49.509Z,96.85
2022-12-02T18:23:50.792Z,96.8
2022-12-02T18:25:52.678Z,96.86
2022-12-02T18:27:54.119Z,96.77
2022-12-02T18:29:55.908Z,96.84
2022-12-02T18:31:57.307Z,96.91
2022-12-02T18:33:58.814Z,97
2022-12-02T18:36:00.330Z,96.96
2022-12-02T18:40:03.446Z,96.94
2022-12-02T18:40:47.386Z,96.91
2022-12-02T18:42:49.272Z,96.85
2022-12-02T18:44:51.122Z,96.77
2022-12-02T18:46:52.430Z,96.7
2022-12-02T18:48:53.759Z,96.77
2022-12-02T18:50:55.463Z,96.73
2022-12-02T18:52:57.215Z,96.74
2022-12-02T18:54:58.934Z,96.68
2022-12-02T18:57:00.527Z,96.69
2022-12-02T18:59:02.484Z,96.77
2022-12-02T19:01:04.349Z,96.8
2022-12-02T19:03:05.460Z,96.85
2022-12-02T19:05:07.270Z,96.85
2022-12-02T19:07:08.519Z,96.8
2022-12-02T19:09:09.543Z,96.77
2022-12-02T19:11:10.958Z,96.76
2022-12-02T19:13:12.978Z,96.85
2022-12-02T19:17:15.777Z,96.82
2022-12-02T19:19:16.935Z,96.87
2022-12-02T19:21:23.094Z,96.83
2022-12-02T19:23:19.155Z,96.88
2022-12-02T19:27:56.032Z,96.8
2022-12-02T19:29:23.079Z,96.74
2022-12-02T19:33:26.220Z,96.74
2022-12-02T19:35:27.981Z,96.78
2022-12-02T19:41:33.324Z,96.91
2022-12-02T19:43:35.987Z,96.95
2022-12-02T19:45:36.092Z,96.99
2022-12-02T19:47:37.949Z,96.94
2022-12-02T19:49:39.168Z,96.95
2022-12-02T19:51:40.900Z,96.93
2022-12-02T19:53:42.944Z,96.98
2022-12-02T19:55:44.000Z,96.95
2022-12-02T19:57:45.299Z,96.95
2022-12-02T19:59:46.606Z,96.93
2022-12-02T20:01:48.693Z,96.97
2022-12-02T20:03:49.979Z,97.03
2022-12-02T20:05:51.653Z,96.97
2022-12-02T20:07:53.195Z,97.04
2022-12-02T20:09:54.763Z,96.97
2022-12-02T20:11:55.863Z,96.84
2022-12-02T20:15:59.322Z,96.62
2022-12-02T20:18:00.804Z,96.69
2022-12-02T20:20:02.060Z,96.7
2022-12-02T20:22:03.325Z,96.69
2022-12-02T20:26:06.301Z,96.74
2022-12-02T20:28:08.010Z,96.73
2022-12-02T20:30:09.456Z,96.55
2022-12-02T20:32:10.656Z,96.61
2022-12-02T20:34:12.087Z,96.6
2022-12-02T20:36:13.521Z,96.68
2022-12-02T20:38:14.938Z,96.66
2022-12-02T20:40:16.817Z,96.64
2022-12-02T20:42:18.110Z,96.54
2022-12-02T20:44:19.364Z,96.65
2022-12-02T20:46:21.377Z,96.7
2022-12-02T20:48:22.301Z,96.7
2022-12-02T20:50:24.221Z,96.67
2022-12-02T20:52:26.194Z,96.65
2022-12-02T20:54:28.103Z,96.59
2022-12-02T20:56:30.022Z,96.55
2022-12-02T20:58:31.470Z,96.4
2022-12-02T21:00:33.166Z,96.54
2022-12-02T21:02:34.814Z,96.37
2022-12-02T21:04:36.127Z,96.46
2022-12-02T21:08:40.162Z,96.53
2022-12-02T21:10:41.811Z,96.51
2022-12-02T21:12:43.286Z,96.56
2022-12-02T21:14:44.645Z,96.48
2022-12-02T21:16:46.197Z,96.5
2022-12-02T21:18:47.379Z,96.56
2022-12-02T21:20:48.909Z,96.45
2022-12-02T21:22:50.931Z,96.36
2022-12-02T21:24:52.281Z,96.42
2022-12-02T21:26:53.291Z,96.45
2022-12-02T21:28:54.838Z,96.47
2022-12-02T21:30:56.424Z,96.58
2022-12-02T21:32:58.024Z,96.53
2022-12-02T21:35:02.624Z,96.5
2022-12-02T21:37:01.628Z,96.51
2022-12-02T21:39:03.152Z,96.52
2022-12-02T21:41:04.776Z,96.48
2022-12-02T21:43:06.029Z,96.46
2022-12-02T21:45:07.705Z,96.4
2022-12-02T21:47:09.424Z,96.35
2022-12-02T21:49:10.554Z,96.33
2022-12-02T21:51:11.672Z,96.53
2022-12-02T21:53:12.789Z,96.34
2022-12-02T21:55:14.371Z,96.31
2022-12-02T21:57:16.168Z,96.38
2022-12-02T21:59:17.464Z,96.41
2022-12-02T22:01:18.792Z,96.35
2022-12-02T22:03:19.990Z,96.34
2022-12-02T22:05:22.004Z,96.38
2022-12-02T22:07:23.290Z,96.26
2022-12-02T22:09:24.368Z,96.36
2022-12-02T22:11:25.978Z,96.4
2022-12-02T22:13:27.339Z,96.37
2022-12-02T22:15:28.625Z,96.35
2022-12-02T22:17:29.970Z,96.09
2022-12-02T22:19:31.359Z,96.19
2022-12-02T22:23:34.443Z,96.15
2022-12-02T22:25:36.192Z,96.26
2022-12-02T22:27:37.959Z,96.36
2022-12-02T22:29:39.559Z,96.33
2022-12-02T22:31:41.263Z,96.33
2022-12-02T22:33:43.089Z,96.38
2022-12-02T22:35:44.180Z,96.31
2022-12-02T22:37:46.044Z,96.34
2022-12-02T22:39:47.119Z,96.36
2022-12-02T22:41:48.727Z,96.32
2022-12-02T22:43:50.717Z,96.11
2022-12-02T22:45:51.941Z,96.12
2022-12-02T22:47:53.864Z,96.07
2022-12-02T22:49:55.848Z,96.13
2022-12-02T22:51:57.650Z,96.18
2022-12-02T22:53:59.319Z,96.06
2022-12-02T22:56:00.570Z,96
2022-12-02T22:58:02.022Z,96.05
2022-12-02T23:00:04.050Z,96
2022-12-02T23:02:05.758Z,96.19
2022-12-02T23:06:08.827Z,96.31
2022-12-02T23:08:10.726Z,96.34
2022-12-02T23:10:12.229Z,96.39
2022-12-02T23:12:14.047Z,96.15
2022-12-02T23:14:15.786Z,96.06
2022-12-02T23:16:17.040Z,96.2
2022-12-02T23:18:18.726Z,96.27
2022-12-02T23:20:20.403Z,96.36
2022-12-02T23:22:22.032Z,96.4
2022-12-02T23:24:23.312Z,96.38
2022-12-02T23:26:24.994Z,96.38
2022-12-02T23:28:26.437Z,96.39
2022-12-02T23:30:29.112Z,96.4
2022-12-02T23:32:30.405Z,96.5
2022-12-02T23:34:31.873Z,96.59
2022-12-02T23:36:35.119Z,96.69
2022-12-02T23:38:34.651Z,96.65
2022-12-02T23:40:36.109Z,96.59
2022-12-02T23:42:38.403Z,96.49
2022-12-02T23:44:38.987Z,96.39
2022-12-02T23:46:40.398Z,96.46
2022-12-02T23:48:41.915Z,96.43
2022-12-02T23:50:43.617Z,96.41
2022-12-02T23:52:45.193Z,96.39
2022-12-02T23:54:46.490Z,96.54
2022-12-02T23:56:47.844Z,96.49
2022-12-02T23:58:49.034Z,96.46
